Time;durP1;ratioP1;P1;durP2;ratioP2;P2;SDS_P1;SDS_P2;PMS_P1;PMS_P2;Temp;Humidity;BMP_temperature;BMP_pressure;BME280_temperature;BME280_humidity;BME280_pressure;Samples;Min_cycle;Max_cycle;Signal;HPM_P1;HPM_P2
2022/07/15 00:02:45;;;;;;;3.50;1.88;;;;;;;20.11;55.72;100559.88;5036476;28;20554;-58
2022/07/15 00:05:30;;;;;;;7.40;2.40;;;;;;;20.08;55.91;100565.22;5036612;28;20554;-60
2022/07/15 00:08:14;;;;;;;3.78;2.13;;;;;;;20.04;56.00;100568.78;5035529;28;20409;-59
2022/07/15 00:11:01;;;;;;;6.75;2.65;;;;;;;20.01;55.93;100569.66;5036268;28;20468;-60
2022/07/15 00:13:45;;;;;;;4.47;1.98;;;;;;;20.00;55.93;100570.59;5035846;28;20048;-60
2022/07/15 00:16:29;;;;;;;6.72;2.33;;;;;;;19.99;56.08;100567.97;5036130;28;20423;-59
2022/07/15 00:19:16;;;;;;;5.28;1.90;;;;;;;19.98;56.00;100567.09;5034771;28;20044;-60
2022/07/15 00:22:00;;;;;;;7.70;2.13;;;;;;;19.98;56.19;100571.47;5035757;28;20048;-60
2022/07/15 00:24:44;;;;;;;4.53;2.30;;;;;;;19.98;55.96;100564.47;5035323;28;20401;-60
2022/07/15 00:27:28;;;;;;;4.18;2.17;;;;;;;19.99;56.18;100557.44;5036207;28;20068;-60
2022/07/15 00:30:12;;;;;;;3.50;1.85;;;;;;;19.99;56.34;100567.97;5034836;28;20133;-59
2022/07/15 00:32:56;;;;;;;4.88;1.83;;;;;;;19.98;56.22;100564.47;5036386;28;20053;-60
2022/07/15 00:35:40;;;;;;;4.85;2.00;;;;;;;19.97;56.22;100561.84;5035871;28;20052;-59
2022/07/15 00:38:24;;;;;;;8.02;2.38;;;;;;;19.96;56.25;100573.25;5035027;28;20068;-59
2022/07/15 00:41:08;;;;;;;5.40;1.92;;;;;;;19.95;56.44;100564.50;5036046;28;20107;-59
2022/07/15 00:43:52;;;;;;;4.25;2.30;;;;;;;19.94;56.42;100565.41;5035863;28;20091;-58
2022/07/15 00:46:40;;;;;;;4.53;1.85;;;;;;;19.92;56.86;100568.06;5034969;28;20562;-59
2022/07/15 00:49:24;;;;;;;2.80;1.63;;;;;;;19.91;56.90;100568.06;5035079;28;20068;-59
2022/07/15 00:52:12;;;;;;;4.60;2.00;;;;;;;19.91;56.48;100568.06;5035462;28;20507;-59
2022/07/15 00:54:59;;;;;;;5.47;2.30;;;;;;;19.90;56.64;100558.44;5035163;28;20053;-61
2022/07/15 00:57:45;;;;;;;5.80;2.42;;;;;;;19.92;56.56;100561.91;5034933;28;20047;-60
2022/07/15 01:00:29;;;;;;;4.70;2.17;;;;;;;19.89;56.68;100554.94;5034530;28;20044;-60
2022/07/15 01:03:15;;;;;;;5.50;2.20;;;;;;;19.88;56.85;100560.22;5035808;28;20056;-60
2022/07/15 01:06:02;;;;;;;4.07;2.05;;;;;;;19.85;56.92;100558.47;5034502;28;20048;-60
2022/07/15 01:08:46;;;;;;;3.90;2.28;;;;;;;19.84;56.68;100561.16;5035323;28;20060;-60
2022/07/15 01:11:33;;;;;;;6.32;2.03;;;;;;;19.85;56.64;100562.88;5035590;28;20393;-59
2022/07/15 01:14:17;;;;;;;3.58;2.10;;;;;;;19.85;56.92;100553.22;5034649;28;20053;-59
2022/07/15 01:17:01;;;;;;;4.90;2.47;;;;;;;19.86;56.92;100548.81;5034275;28;20083;-61
2022/07/15 01:19:45;;;;;;;6.70;1.95;;;;;;;19.87;56.96;100561.09;5035120;28;20048;-60
2022/07/15 01:22:30;;;;;;;4.82;2.50;;;;;;;19.86;56.79;100564.59;5034858;28;20103;-60
2022/07/15 01:25:16;;;;;;;4.85;2.58;;;;;;;19.85;56.58;100569.00;5034898;28;20144;-60
2022/07/15 01:28:05;;;;;;;6.63;3.00;;;;;;;19.85;56.77;100568.16;5034398;28;20095;-60
2022/07/15 01:30:49;;;;;;;4.93;2.30;;;;;;;19.83;56.83;100562.03;5034346;28;20183;-59
2022/07/15 01:33:33;;;;;;;7.50;2.50;;;;;;;19.82;56.36;100565.56;5035017;28;20087;-59
2022/07/15 01:36:17;;;;;;;7.70;2.75;;;;;;;19.80;56.55;100556.81;5034054;28;20558;-59
2022/07/15 01:39:04;;;;;;;5.28;2.53;;;;;;;19.79;56.51;100561.19;5034676;28;20044;-59
2022/07/15 01:41:48;;;;;;;5.47;2.20;;;;;;;19.80;56.46;100569.97;5033663;28;20049;-59
2022/07/15 01:44:34;;;;;;;4.13;2.38;;;;;;;19.78;56.69;100567.34;5034773;28;20148;-59
2022/07/15 01:47:21;;;;;;;3.92;2.53;;;;;;;19.77;56.45;100565.63;5033886;28;20052;-59
2022/07/15 01:50:06;;;;;;;6.05;2.25;;;;;;;19.75;56.55;100565.63;5033509;28;20141;-59
2022/07/15 01:52:52;;;;;;;5.80;2.30;;;;;;;19.77;56.66;100574.38;5034460;28;20056;-59
2022/07/15 01:55:38;;;;;;;5.85;2.92;;;;;;;19.75;56.62;100575.28;5033707;28;20103;-60
2022/07/15 01:58:22;;;;;;;7.07;2.45;;;;;;;19.73;56.52;100567.41;5033608;28;20084;-59
2022/07/15 02:01:09;;;;;;;6.03;2.50;;;;;;;19.73;56.56;100571.81;5034361;28;20060;-60
2022/07/15 02:03:55;;;;;;;6.53;2.55;;;;;;;19.70;56.64;100572.69;5032828;28;20416;-60
2022/07/15 02:06:40;;;;;;;7.60;3.08;;;;;;;19.69;56.25;100573.63;5033613;28;20528;-59
2022/07/15 02:09:24;;;;;;;3.67;2.55;;;;;;;19.68;56.40;100576.25;5033113;28;20534;-59
2022/07/15 02:12:08;;;;;;;8.95;2.42;;;;;;;19.67;56.51;100577.13;5034036;28;20043;-60
2022/07/15 02:14:55;;;;;;;5.72;2.67;;;;;;;19.65;56.47;100571.91;5034247;28;20047;-59
2022/07/15 02:17:39;;;;;;;5.55;3.05;;;;;;;19.63;56.68;100571.91;5033352;28;20048;-58
2022/07/15 02:20:23;;;;;;;8.05;3.10;;;;;;;19.61;56.48;100578.97;5033832;28;20043;-59
2022/07/15 02:23:09;;;;;;;5.53;2.63;;;;;;;19.60;56.39;100587.75;5033738;28;20140;-60
2022/07/15 02:25:53;;;;;;;5.10;2.85;;;;;;;19.60;56.53;100586.84;5032861;28;20611;-59
2022/07/15 02:28:37;;;;;;;8.00;2.67;;;;;;;19.59;56.56;100590.38;5033905;28;20051;-59
2022/07/15 02:31:22;;;;;;;7.10;2.88;;;;;;;19.58;56.51;100586.00;5033132;28;20479;-60
2022/07/15 02:34:11;;;;;;;9.25;2.50;;;;;;;19.56;56.49;100587.78;5033738;28;20140;-60
2022/07/15 02:36:55;;;;;;;5.65;2.45;;;;;;;19.56;56.50;100587.78;5033167;28;20140;-60
2022/07/15 02:39:39;;;;;;;4.40;2.53;;;;;;;19.54;56.61;100595.69;5033238;28;20128;-59
2022/07/15 02:42:25;;;;;;;7.57;2.83;;;;;;;19.54;56.57;100587.81;5033806;28;20056;-59
2022/07/15 02:45:11;;;;;;;6.10;2.63;;;;;;;19.55;56.50;100591.28;5033978;28;20048;-59
2022/07/15 02:47:56;;;;;;;5.63;2.58;;;;;;;19.55;56.53;100597.44;5033363;28;20234;-59
2022/07/15 02:50:40;;;;;;;;;;;;;;;19.53;56.38;100598.34;5033158;28;20052;-60
2022/07/15 02:53:28;;;;;;;6.13;2.20;;;;;;;19.52;56.47;100601.88;5033702;28;19927;-60
2022/07/15 02:56:12;;;;;;;5.88;3.10;;;;;;;19.52;56.71;100604.50;5033716;28;20557;-60
2022/07/15 02:58:56;;;;;;;5.30;2.67;;;;;;;19.51;56.52;100605.38;5033357;28;20052;-60
2022/07/15 03:01:43;;;;;;;7.32;3.10;;;;;;;19.50;56.52;100612.38;5033308;28;20376;-60
2022/07/15 03:04:29;;;;;;;6.80;2.95;;;;;;;19.49;56.64;100615.91;5033053;28;20074;-60
2022/07/15 03:07:13;;;;;;;5.25;2.90;;;;;;;19.50;56.57;100614.16;5033597;28;20168;-60
2022/07/15 03:10:00;;;;;;;4.03;2.40;;;;;;;19.47;56.53;100613.31;5035010;28;20583;-60
2022/07/15 03:12:44;;;;;;;4.82;2.65;;;;;;;19.48;56.65;100614.16;5037429;28;20531;-60
2022/07/15 03:15:28;;;;;;;6.63;3.28;;;;;;;19.47;56.74;100618.56;5038043;28;20141;-59
2022/07/15 03:18:16;;;;;;;5.35;2.78;;;;;;;19.46;56.62;100622.06;5037560;28;20052;-59
2022/07/15 03:21:02;;;;;;;7.35;2.78;;;;;;;19.46;56.56;100626.47;5036211;28;20535;-59
2022/07/15 03:23:46;;;;;;;10.88;2.95;;;;;;;19.43;56.61;100627.34;5036643;28;20179;-59
2022/07/15 03:26:35;;;;;;;5.18;3.00;;;;;;;19.41;56.67;100628.28;5036355;28;20117;-60
2022/07/15 03:29:22;;;;;;;7.40;2.92;;;;;;;19.39;56.40;100632.69;5036561;28;20133;-59
2022/07/15 03:32:10;;;;;;;5.70;2.60;;;;;;;19.35;56.62;100629.22;5037242;28;20047;-59
2022/07/15 03:34:57;;;;;;;6.78;2.58;;;;;;;19.32;56.44;100627.47;5036037;28;20047;-60
2022/07/15 03:37:44;;;;;;;7.43;2.83;;;;;;;19.31;57.13;100635.38;5037322;28;20052;-59
2022/07/15 03:40:28;;;;;;;7.25;2.92;;;;;;;19.30;56.59;100631.00;5036375;28;20115;-59
2022/07/15 03:43:13;;;;;;;8.73;3.00;;;;;;;19.30;56.67;100638.91;5036264;28;20132;-60
2022/07/15 03:45:57;;;;;;;6.95;2.83;;;;;;;19.28;56.67;100635.41;5036452;28;20073;-60
2022/07/15 03:48:41;;;;;;;4.43;2.80;;;;;;;19.27;56.53;100631.03;5035879;28;20080;-60
2022/07/15 03:51:30;;;;;;;5.03;2.80;;;;;;;19.27;56.69;100628.41;5036117;28;20080;-60
2022/07/15 03:54:14;;;;;;;7.28;2.97;;;;;;;19.27;56.62;100637.19;5035650;28;20538;-60
2022/07/15 03:56:59;;;;;;;9.65;3.05;;;;;;;19.25;56.69;100635.44;5037002;28;20088;-60
2022/07/15 03:59:44;;;;;;;5.57;2.78;;;;;;;19.24;56.64;100634.59;5036329;28;20056;-60
2022/07/15 04:02:31;;;;;;;4.28;2.30;;;;;;;19.24;56.62;100638.94;5036263;28;20056;-60
2022/07/15 04:05:15;;;;;;;4.97;3.35;;;;;;;19.24;56.69;100641.56;5036786;28;20091;-60
2022/07/15 04:07:59;;;;;;;5.07;3.03;;;;;;;19.23;56.54;100645.13;5036304;28;20424;-60
2022/07/15 04:10:43;;;;;;;6.97;3.65;;;;;;;19.22;56.56;100646.00;5036447;28;20048;-60
2022/07/15 04:13:27;;;;;;;5.57;3.00;;;;;;;19.21;56.62;100657.41;5036035;28;20094;-59
2022/07/15 04:16:13;;;;;;;7.93;2.92;;;;;;;19.20;56.89;100647.78;5036288;28;20444;-59
2022/07/15 04:18:57;;;;;;;7.55;3.53;;;;;;;19.19;56.89;100644.25;5036495;28;20084;-59
2022/07/15 04:21:44;;;;;;;6.85;2.80;;;;;;;19.17;56.80;100643.41;5035709;28;20099;-59
2022/07/15 04:24:28;;;;;;;7.13;2.78;;;;;;;19.15;56.76;100640.81;5035513;28;20069;-59
2022/07/15 04:27:12;;;;;;;9.80;2.67;;;;;;;19.14;56.62;100641.69;5036126;28;20099;-59
2022/07/15 04:29:56;;;;;;;5.25;2.60;;;;;;;19.15;56.53;100646.06;5036112;28;20100;-59
2022/07/15 04:32:41;;;;;;;7.03;3.05;;;;;;;19.13;56.99;100645.19;5036614;28;20088;-60
2022/07/15 04:35:26;;;;;;;7.95;3.33;;;;;;;19.14;56.85;100648.72;5034979;28;20068;-59
2022/07/15 04:38:16;;;;;;;7.18;2.90;;;;;;;19.13;56.67;100653.06;5035772;28;20459;-58
2022/07/15 04:41:00;;;;;;;7.60;3.28;;;;;;;19.11;56.71;100652.22;5034970;28;20053;-59
2022/07/15 04:43:45;;;;;;;6.28;3.08;;;;;;;19.11;56.73;100654.00;5035834;28;20131;-59
2022/07/15 04:46:29;;;;;;;7.47;2.95;;;;;;;19.11;56.84;100654.00;5036010;28;20523;-59
2022/07/15 04:52:21;;;;;;;6.63;2.97;;;;;;;19.10;56.80;100652.25;5035215;28;20052;-59
2022/07/15 04:55:05;;;;;;;4.95;2.88;;;;;;;19.11;56.77;100654.84;5035708;28;20461;-59
2022/07/15 04:57:48;;;;;;;7.13;3.08;;;;;;;19.12;56.93;100651.34;5035616;28;20056;-58
2022/07/15 05:00:32;;;;;;;10.73;2.65;;;;;;;19.12;57.18;100647.84;5035464;28;20092;-60
2022/07/15 05:03:16;;;;;;;8.20;2.50;;;;;;;19.11;56.91;100649.59;5035193;28;20188;-59
2022/07/15 05:06:01;;;;;;;7.20;3.00;;;;;;;19.12;57.12;100648.72;5035226;28;20057;-59
2022/07/15 05:08:48;;;;;;;6.10;2.83;;;;;;;19.13;57.11;100649.59;5034570;28;20096;-60
2022/07/15 05:11:32;;;;;;;8.65;3.50;;;;;;;19.13;57.24;100655.72;5035211;28;20080;-60
2022/07/15 05:14:19;;;;;;;8.63;2.97;;;;;;;19.13;56.92;100654.84;5034807;28;20432;-59
2022/07/15 05:17:06;;;;;;;4.93;2.72;;;;;;;19.10;57.33;100658.34;5034367;28;20080;-60
2022/07/15 05:19:50;;;;;;;6.78;3.30;;;;;;;19.09;57.15;100661.88;5033965;28;20048;-60
2022/07/15 05:22:34;;;;;;;6.55;3.25;;;;;;;19.07;56.92;100658.41;5035401;28;20576;-61
2022/07/15 05:25:18;;;;;;;5.30;2.88;;;;;;;19.05;57.26;100654.91;5035086;28;20055;-60
2022/07/15 05:28:05;;;;;;;7.30;3.10;;;;;;;19.02;57.02;100650.56;5034866;28;20172;-60
2022/07/15 05:30:52;;;;;;;7.07;3.50;;;;;;;19.02;57.09;100658.44;5034199;28;20115;-62
2022/07/15 05:33:39;;;;;;;6.82;3.17;;;;;;;19.02;57.29;100657.56;5034011;28;20099;-60
2022/07/15 05:36:23;;;;;;;5.00;2.63;;;;;;;19.02;57.09;100658.44;5033618;28;20044;-60
2022/07/15 05:39:07;;;;;;;7.25;4.00;;;;;;;19.01;57.13;100658.47;5033288;28;20099;-60
2022/07/15 05:41:56;;;;;;;6.63;3.33;;;;;;;19.01;57.58;100650.56;5034771;28;20523;-61
2022/07/15 05:44:44;;;;;;;5.85;3.05;;;;;;;19.01;57.32;100651.44;5034479;28;20048;-60
2022/07/15 05:47:31;;;;;;;6.63;3.13;;;;;;;19.03;57.59;100654.06;5035417;28;20515;-60
2022/07/15 05:50:16;;;;;;;6.93;3.53;;;;;;;19.02;57.40;100657.56;5033884;28;20052;-59
2022/07/15 05:53:00;;;;;;;7.53;2.75;;;;;;;19.03;57.56;100664.56;5034345;28;20060;-60
2022/07/15 05:55:46;;;;;;;6.78;3.28;;;;;;;19.03;57.34;100661.94;5034171;28;20055;-60
2022/07/15 05:58:30;;;;;;;7.03;3.17;;;;;;;19.01;57.47;100667.19;5034164;28;20065;-60
2022/07/15 06:01:16;;;;;;;10.55;3.53;;;;;;;18.99;57.35;100666.34;5034477;28;20068;-60
2022/07/15 06:04:06;;;;;;;6.50;3.17;;;;;;;19.00;57.61;100661.97;5033573;28;20056;-60
2022/07/15 06:06:50;;;;;;;8.48;3.33;;;;;;;18.99;57.42;100669.00;5034138;28;20123;-60
2022/07/15 06:09:37;;;;;;;8.15;3.92;;;;;;;18.99;57.44;100671.63;5034558;28;20044;-60
2022/07/15 06:12:21;;;;;;;9.40;3.13;;;;;;;19.00;57.69;100672.47;5033161;28;20048;-60
2022/07/15 06:15:06;;;;;;;6.00;3.33;;;;;;;18.96;57.30;100669.00;5033923;28;20047;-60
2022/07/15 06:17:56;;;;;;;9.80;3.58;;;;;;;18.95;57.68;100671.63;5033368;28;20048;-60
2022/07/15 06:20:40;;;;;;;6.47;3.55;;;;;;;18.92;57.82;100679.53;5034317;28;20129;-60
2022/07/15 06:23:25;;;;;;;5.55;3.30;;;;;;;18.89;57.97;100676.91;5034479;28;20060;-61
2022/07/15 06:26:12;;;;;;;;;;;;;;;18.86;57.59;100678.69;5033450;28;20520;-59
2022/07/15 06:28:56;;;;;;;8.65;3.35;;;;;;;18.86;57.74;100680.41;5033512;28;19925;-58
2022/07/15 06:31:40;;;;;;;7.93;3.50;;;;;;;18.83;58.15;100676.06;5033333;28;20527;-59
2022/07/15 06:34:24;;;;;;;6.30;3.33;;;;;;;18.85;57.96;100679.56;5034165;28;20627;-59
2022/07/15 06:37:13;;;;;;;6.85;3.85;;;;;;;18.86;57.95;100683.03;5033540;28;20519;-60
2022/07/15 06:40:01;;;;;;;8.90;3.53;;;;;;;18.86;58.35;100683.03;5033233;28;20133;-61
2022/07/15 06:42:48;;;;;;;7.05;3.63;;;;;;;18.85;57.93;100679.56;5033021;28;20099;-59
2022/07/15 06:45:35;;;;;;;5.03;3.17;;;;;;;18.83;58.07;100678.69;5033203;28;20107;-59
2022/07/15 06:48:19;;;;;;;8.15;3.20;;;;;;;18.86;58.17;100685.66;5033204;28;20538;-59
2022/07/15 06:51:03;;;;;;;10.35;3.75;;;;;;;18.82;58.24;100683.97;5033787;28;20616;-59
2022/07/15 06:53:49;;;;;;;4.78;2.55;;;;;;;18.81;58.52;100684.88;5033328;28;20551;-58
2022/07/15 06:56:39;;;;;;;7.65;3.13;;;;;;;18.79;57.92;100678.75;5033359;28;20412;-60
2022/07/15 06:59:27;;;;;;;7.90;3.47;;;;;;;18.79;58.02;100682.22;5033481;28;20547;-59
2022/07/15 07:02:11;;;;;;;8.65;3.58;;;;;;;18.82;58.06;100681.34;5033686;28;20103;-58
2022/07/15 07:04:54;;;;;;;4.18;2.65;;;;;;;18.81;58.34;100685.72;5033684;28;20118;-59
2022/07/15 07:07:38;;;;;;;7.43;3.20;;;;;;;18.82;58.32;100676.97;5033534;28;20056;-59
2022/07/15 07:10:22;;;;;;;3.85;2.63;;;;;;;18.81;58.41;100680.47;5033452;28;20186;-59
2022/07/15 07:13:06;;;;;;;7.00;3.08;;;;;;;18.78;58.35;100685.72;5032985;28;20052;-59
2022/07/15 07:15:50;;;;;;;8.52;3.55;;;;;;;18.79;58.36;100692.72;5032874;28;20084;-59
2022/07/15 07:18:34;;;;;;;8.45;2.83;;;;;;;18.81;58.53;100687.47;5033556;28;20552;-59
2022/07/15 07:21:19;;;;;;;6.55;2.53;;;;;;;18.80;58.73;100688.38;5032509;28;20236;-60
2022/07/15 07:24:03;;;;;;;7.38;3.22;;;;;;;18.78;58.21;100685.72;5033298;28;20053;-60
2022/07/15 07:26:48;;;;;;;7.10;3.38;;;;;;;18.78;58.29;100685.72;5033183;28;20412;-60
2022/07/15 07:29:32;;;;;;;4.70;2.17;;;;;;;18.77;58.37;100693.63;5032839;28;20099;-60
2022/07/15 07:32:16;;;;;;;6.07;2.72;;;;;;;18.77;58.37;100683.13;5032717;28;20586;-59
2022/07/15 07:35:00;;;;;;;6.75;2.60;;;;;;;18.79;58.36;100686.63;5033462;28;20064;-59
2022/07/15 07:37:47;;;;;;;6.15;2.38;;;;;;;18.79;58.40;100684.84;5032227;28;20076;-59
2022/07/15 07:40:31;;;;;;;7.38;2.42;;;;;;;18.78;58.47;100682.25;5033341;28;20040;-59
2022/07/15 07:43:17;;;;;;;7.18;2.53;;;;;;;18.78;58.39;100684.88;5033216;28;20180;-58
2022/07/15 07:46:01;;;;;;;6.10;2.60;;;;;;;18.74;58.12;100681.41;5032259;28;20044;-58
2022/07/15 07:48:45;;;;;;;8.63;2.42;;;;;;;18.75;58.24;100684.91;5032850;28;20132;-59
2022/07/15 07:51:35;;;;;;;3.90;2.15;;;;;;;18.72;58.37;100683.19;5033101;28;20049;-59
2022/07/15 07:54:24;;;;;;;9.23;2.50;;;;;;;18.71;58.06;100681.44;5032312;28;20049;-58
2022/07/15 07:57:08;;;;;;;5.32;1.98;;;;;;;18.66;58.28;100683.22;5035173;28;20052;-58
2022/07/15 07:59:55;;;;;;;8.07;2.50;;;;;;;18.70;58.26;100695.44;5036786;28;20120;-60
2022/07/15 08:02:39;;;;;;;7.28;2.30;;;;;;;18.69;58.27;100683.19;5036402;28;20057;-58
2022/07/15 08:05:24;;;;;;;4.43;2.20;;;;;;;18.69;58.09;100694.56;5036449;28;20404;-58
2022/07/15 08:08:16;;;;;;;4.78;2.05;;;;;;;18.70;58.17;100685.78;5050000;28;20103;-60
2022/07/15 08:11:00;;;;;;;5.75;1.92;;;;;;;18.69;58.06;100697.19;5035550;28;20055;-60
2022/07/15 08:13:50;;;;;;;9.25;2.83;;;;;;;18.65;57.89;100699.84;5035134;28;20511;-60
2022/07/15 08:16:42;;;;;;;5.05;2.35;;;;;;;18.65;57.89;100695.47;5035735;28;20045;-60
2022/07/15 08:19:26;;;;;;;4.80;1.90;;;;;;;18.66;57.80;100696.34;5036374;28;20107;-58
2022/07/15 08:22:14;;;;;;;4.22;1.95;;;;;;;18.65;57.90;100705.09;5035194;28;20452;-59
2022/07/15 08:27:11;;;;;;;3.17;1.63;;;;;;;18.64;58.05;100690.22;5153116;27;20206;-61
2022/07/15 08:29:58;;;;;;;5.75;2.20;;;;;;;18.66;57.71;100696.34;5116706;28;20402;-58
2022/07/15 08:32:48;;;;;;;7.80;2.10;;;;;;;18.65;57.97;100692.84;5116189;28;20164;-59
2022/07/15 08:35:34;;;;;;;5.78;2.08;;;;;;;18.66;58.04;100698.97;5116604;28;20074;-58
2022/07/15 08:38:18;;;;;;;4.70;1.77;;;;;;;18.65;58.04;100695.47;5131734;28;20069;-60
2022/07/15 08:41:04;;;;;;;2.80;1.63;;;;;;;18.66;57.83;100697.22;5132068;28;20123;-60
2022/07/15 08:43:51;;;;;;;4.93;1.50;;;;;;;18.68;57.71;100697.19;5131950;28;20049;-58
2022/07/15 08:46:35;;;;;;;3.85;1.60;;;;;;;18.64;57.77;100701.59;5115625;28;20467;-60
2022/07/15 08:49:22;;;;;;;4.72;1.65;;;;;;;18.64;57.67;100701.59;5116328;28;20127;-60
2022/07/15 08:52:11;;;;;;;9.35;2.20;;;;;;;18.62;57.56;100698.13;5116084;28;20066;-60
2022/07/15 08:54:58;;;;;;;5.78;2.05;;;;;;;18.62;57.63;100695.50;5131502;27;20060;-60
2022/07/15 08:57:50;;;;;;;7.88;1.83;;;;;;;18.61;57.15;100695.50;5116241;28;20509;-59
2022/07/15 09:00:34;;;;;;;4.40;1.95;;;;;;;18.62;57.46;100691.97;5116125;28;20098;-59
2022/07/15 09:03:17;;;;;;;9.80;2.10;;;;;;;18.63;57.30;100698.97;5131360;28;20112;-60
2022/07/15 09:06:04;;;;;;;7.32;2.38;;;;;;;18.63;57.45;100701.59;5131238;28;20046;-59
2022/07/15 09:08:48;;;;;;;3.53;1.63;;;;;;;18.62;57.59;100692.88;5131085;28;20410;-58
2022/07/15 09:11:35;;;;;;;6.00;1.65;;;;;;;18.63;57.28;100691.09;5131036;28;20407;-58
2022/07/15 09:14:19;;;;;;;6.47;1.65;;;;;;;18.65;57.23;100695.47;5131132;28;20081;-59
2022/07/15 09:17:09;;;;;;;3.38;1.73;;;;;;;18.66;57.52;100694.59;5130483;28;20527;-58
2022/07/15 09:20:09;;;;;;;4.45;1.50;;;;;;;18.67;57.25;100690.19;5131113;28;20523;-59
2022/07/15 09:22:56;;;;;;;4.82;2.15;;;;;;;18.69;57.31;100684.03;5115613;28;20130;-60
2022/07/15 09:25:40;;;;;;;5.78;2.30;;;;;;;18.71;57.29;100681.44;5130241;28;20054;-58
2022/07/15 09:28:39;;;;;;;5.03;1.88;;;;;;;18.71;57.66;100676.19;5130719;28;20123;-59
2022/07/15 09:34:35;;;;;;;2.97;1.60;;;;;;;18.74;57.51;100668.28;5130565;28;20043;-60
2022/07/15 09:37:22;;;;;;;4.50;2.22;;;;;;;18.76;57.04;100677.03;5123715;28;20042;-58
2022/07/15 09:40:09;;;;;;;9.07;1.98;;;;;;;18.78;57.50;100677.84;5116944;28;20482;-58
2022/07/15 09:43:05;;;;;;;3.33;1.77;;;;;;;18.76;57.18;100674.41;5116703;28;20049;-58
2022/07/15 09:46:00;;;;;;;6.60;1.95;;;;;;;18.77;57.29;100664.75;5116483;28;20154;-58
2022/07/15 09:48:45;;;;;;;5.88;1.90;;;;;;;18.77;57.13;100664.75;5116398;28;20051;-58
2022/07/15 09:51:45;;;;;;;3.75;1.73;;;;;;;18.76;57.31;100663.00;5101389;28;20046;-59
2022/07/15 09:54:43;;;;;;;3.35;1.70;;;;;;;18.76;57.12;100669.16;5116394;28;20039;-59
2022/07/15 09:57:28;;;;;;;4.20;1.90;;;;;;;18.77;57.26;100665.59;5101165;28;20504;-59
2022/07/15 10:00:13;;;;;;;4.28;1.80;;;;;;;18.78;56.93;100669.97;5101413;28;20555;-58
2022/07/15 10:03:00;;;;;;;3.03;1.60;;;;;;;18.81;56.94;100661.22;5116029;28;20055;-59
2022/07/15 10:05:47;;;;;;;4.55;2.00;;;;;;;18.81;57.00;100669.97;5101198;28;20046;-58
2022/07/15 10:08:33;;;;;;;7.30;2.05;;;;;;;18.83;56.95;100664.72;5100841;28;20451;-60
2022/07/15 10:11:17;;;;;;;7.20;2.40;;;;;;;18.83;56.89;100668.19;5101118;28;20092;-60
2022/07/15 10:14:31;;;;;;;5.50;2.30;;;;;;;18.82;56.92;100660.34;5116221;28;20051;-60
2022/07/15 10:17:37;;;;;;;4.57;2.13;;;;;;;18.85;56.83;100665.53;5111723;28;20054;-60
2022/07/15 10:20:44;;;;;;;8.48;2.35;;;;;;;18.83;57.00;100655.06;5116000;28;20548;-58
2022/07/15 10:23:44;;;;;;;5.88;2.08;;;;;;;18.81;56.68;100656.84;5115092;28;20050;-60
2022/07/15 10:26:50;;;;;;;3.33;1.98;;;;;;;18.82;56.69;100658.56;5100058;28;20608;-59
2022/07/15 10:29:34;;;;;;;3.08;2.03;;;;;;;18.82;56.86;100657.72;5100835;28;20107;-58
2022/07/15 10:32:21;;;;;;;6.63;2.10;;;;;;;18.85;56.72;100658.56;5100282;28;20050;-60
2022/07/15 10:35:38;;;;;;;5.53;2.13;;;;;;;18.86;56.92;100657.69;5115707;28;20093;-60
2022/07/15 10:38:36;;;;;;;4.47;2.45;;;;;;;18.86;56.62;100652.44;5100607;28;20104;-60
2022/07/15 10:41:21;;;;;;;5.30;1.90;;;;;;;18.86;56.61;100652.44;5100355;28;20546;-60
2022/07/15 10:44:13;;;;;;;6.28;2.03;;;;;;;18.86;56.48;100649.81;5115475;28;20131;-60
2022/07/15 10:47:12;;;;;;;3.42;2.00;;;;;;;18.87;56.51;100646.28;5115254;28;20046;-59
2022/07/15 10:49:57;;;;;;;4.10;2.28;;;;;;;18.89;56.58;100637.53;5114130;28;20051;-60
2022/07/15 10:52:47;;;;;;;5.15;1.58;;;;;;;18.87;56.63;100646.28;5099928;28;20091;-60
2022/07/15 10:55:31;;;;;;;5.80;2.20;;;;;;;18.90;56.57;100640.13;5115376;28;20050;-60
2022/07/15 10:58:18;;;;;;;4.68;2.00;;;;;;;18.91;56.48;100636.63;5100141;28;20070;-58
2022/07/15 11:01:10;;;;;;;4.53;2.00;;;;;;;18.90;56.48;100639.28;5115347;28;20116;-60
2022/07/15 11:04:19;;;;;;;4.82;2.05;;;;;;;18.90;56.26;100631.41;5100254;28;20066;-59
2022/07/15 11:10:11;;;;;;;3.78;1.90;;;;;;;18.93;56.11;100633.97;5115119;28;20047;-59
2022/07/15 11:12:59;;;;;;;5.28;1.73;;;;;;;18.93;56.32;100632.22;5114815;28;20105;-59
2022/07/15 11:15:57;;;;;;;5.15;1.63;;;;;;;18.94;56.39;100620.88;5099852;28;20134;-58
2022/07/15 11:18:50;;;;;;;4.00;1.90;;;;;;;18.95;56.24;100619.09;5114665;28;20110;-59
2022/07/15 11:21:39;;;;;;;4.47;1.67;;;;;;;18.96;56.46;100632.25;5114755;28;20596;-60
2022/07/15 11:24:30;;;;;;;3.20;1.80;;;;;;;18.95;56.17;100622.63;5086120;28;20047;-58
2022/07/15 11:27:17;;;;;;;9.95;2.78;;;;;;;18.94;56.25;100625.22;5114649;28;20039;-58
2022/07/15 11:30:07;;;;;;;3.58;1.67;;;;;;;18.92;56.24;100609.47;5099282;28;20078;-58
2022/07/15 11:32:56;;;;;;;7.10;2.25;;;;;;;18.95;56.13;100616.47;5114460;28;20125;-59
2022/07/15 11:35:52;;;;;;;2.58;1.90;;;;;;;18.97;56.10;100618.22;5114343;28;20101;-58
2022/07/15 11:38:39;;;;;;;9.02;2.33;;;;;;;18.96;55.88;100612.97;5098996;28;20042;-58
2022/07/15 11:44:29;;;;;;;7.93;2.63;;;;;;;18.96;56.08;100616.47;5114275;28;20089;-58
2022/07/15 11:47:14;;;;;;;4.93;1.90;;;;;;;18.97;55.97;100609.47;5114336;28;20116;-61
2022/07/15 11:50:02;;;;;;;4.90;1.98;;;;;;;18.97;55.96;100615.59;5099105;28;20085;-59
2022/07/15 11:52:47;;;;;;;4.45;2.08;;;;;;;18.97;55.95;100606.84;5098848;28;20055;-60
2022/07/15 11:55:54;;;;;;;3.78;1.48;;;;;;;19.00;55.58;100606.81;5114122;28;20039;-61
2022/07/15 11:58:44;;;;;;;5.10;2.15;;;;;;;18.97;55.59;100598.94;5094761;28;20103;-60
2022/07/15 12:01:29;;;;;;;3.85;1.80;;;;;;;18.98;55.81;100603.31;5113596;28;20047;-60
2022/07/15 12:04:13;;;;;;;3.33;1.60;;;;;;;18.97;56.13;100599.84;5113792;28;20096;-60
2022/07/15 12:07:00;;;;;;;7.18;2.13;;;;;;;18.98;55.96;100605.94;5113762;28;20039;-60
2022/07/15 12:09:48;;;;;;;2.30;1.70;;;;;;;18.97;55.63;100596.31;5098559;28;20100;-60
2022/07/15 12:12:32;;;;;;;4.78;2.03;;;;;;;18.96;55.81;100599.84;5114264;28;20042;-59
2022/07/15 12:15:19;;;;;;;4.90;2.00;;;;;;;18.98;55.73;100613.81;5098893;28;20139;-58
2022/07/15 12:18:09;;;;;;;2.78;1.65;;;;;;;18.97;55.73;100604.22;5099260;28;20047;-58
2022/07/15 12:20:56;;;;;;;6.57;2.60;;;;;;;18.95;55.57;100593.72;5113451;28;20058;-59
2022/07/15 12:23:59;;;;;;;6.93;1.73;;;;;;;18.94;55.75;100594.63;5113830;28;20127;-59
2022/07/15 12:26:49;;;;;;;3.20;1.80;;;;;;;18.97;55.48;100602.47;5113191;28;20053;-58
2022/07/15 12:29:34;;;;;;;4.63;2.05;;;;;;;19.00;55.54;100599.78;5113802;28;20070;-59
2022/07/15 12:32:18;;;;;;;3.38;1.90;;;;;;;19.01;55.16;100605.94;5098818;28;20054;-59
2022/07/15 12:35:04;;;;;;;3.38;1.52;;;;;;;19.01;55.67;100601.53;5113793;28;20063;-59
2022/07/15 12:37:52;;;;;;;5.43;1.70;;;;;;;19.02;55.70;100598.00;5098372;28;20517;-59
2022/07/15 12:40:42;;;;;;;4.72;1.90;;;;;;;19.03;55.62;100601.53;5113318;28;20050;-59
2022/07/15 12:43:48;;;;;;;3.88;2.22;;;;;;;19.04;55.20;100600.66;5113835;28;20100;-58
2022/07/15 12:46:51;;;;;;;3.33;1.80;;;;;;;19.06;55.55;100601.50;5113404;28;20086;-59
2022/07/15 12:49:50;;;;;;;3.08;1.70;;;;;;;19.07;55.33;100591.84;5098260;28;20567;-59
2022/07/15 12:52:39;;;;;;;3.88;1.80;;;;;;;19.07;55.41;100592.75;5098382;28;20104;-60
2022/07/15 12:55:26;;;;;;;4.80;1.90;;;;;;;19.09;55.51;100588.31;5098175;28;20099;-60
2022/07/15 12:58:13;;;;;;;4.13;1.60;;;;;;;19.12;55.14;100598.78;5098073;28;20089;-60
2022/07/15 13:01:11;;;;;;;3.25;1.80;;;;;;;19.12;55.62;100585.66;5098538;28;20089;-59
2022/07/15 13:03:55;;;;;;;4.57;1.35;;;;;;;19.11;55.10;100586.53;5098167;28;20047;-59
2022/07/15 13:06:42;;;;;;;4.25;1.77;;;;;;;19.09;55.46;100593.56;5097700;28;20043;-59
2022/07/15 13:11:00;;;;;;;3.15;1.50;;;;;;;19.11;55.33;100583.91;5111361;27;20206;-58
2022/07/15 13:13:44;;;;;;;2.70;1.50;;;;;;;19.14;55.26;100585.66;5111142;28;20595;-59
2022/07/15 13:16:28;;;;;;;6.20;2.17;;;;;;;19.15;55.36;100587.41;5110973;28;20114;-60